sensor_id;sensor_type;location;lat;lon;timestamp;pressure;altitude;pressure_sealevel;temperature;humidity
8039;BME280;4062;49.844;8.120;2023-02-11T00:01:44;101287.63;;;14.11;53.26
8039;BME280;4062;49.844;8.120;2023-02-11T00:03:45;101291.19;;;14.10;53.17
8039;BME280;4062;49.844;8.120;2023-02-11T00:05:57;101286.75;;;14.11;53.30
8039;BME280;4062;49.844;8.120;2023-02-11T00:07:58;101280.56;;;14.10;53.31
8039;BME280;4062;49.844;8.120;2023-02-11T00:09:59;101277.91;;;14.10;53.37
8039;BME280;4062;49.844;8.120;2023-02-11T00:12:02;101282.34;;;14.08;53.14
8039;BME280;4062;49.844;8.120;2023-02-11T00:14:05;101281.44;;;14.09;53.11
8039;BME280;4062;49.844;8.120;2023-02-11T00:16:09;101286.75;;;14.09;53.20
8039;BME280;4062;49.844;8.120;2023-02-11T00:18:11;101288.56;;;14.09;53.24
8039;BME280;4062;49.844;8.120;2023-02-11T00:20:14;101281.47;;;14.07;53.18
8039;BME280;4062;49.844;8.120;2023-02-11T00:22:15;101278.81;;;14.07;53.21
8039;BME280;4062;49.844;8.120;2023-02-11T00:24:16;101287.69;;;14.06;53.59
8039;BME280;4062;49.844;8.120;2023-02-11T00:26:24;101289.44;;;14.07;53.13
8039;BME280;4062;49.844;8.120;2023-02-11T00:28:26;101295.66;;;14.06;53.35
8039;BME280;4062;49.844;8.120;2023-02-11T00:30:27;101285.91;;;14.05;53.26
8039;BME280;4062;49.844;8.120;2023-02-11T00:32:28;101271.72;;;14.05;53.15
8039;BME280;4062;49.844;8.120;2023-02-11T00:34:30;101272.63;;;14.05;53.29
8039;BME280;4062;49.844;8.120;2023-02-11T00:36:31;101277.94;;;14.05;53.33
8039;BME280;4062;49.844;8.120;2023-02-11T00:38:32;101278.81;;;14.06;53.30
8039;BME280;4062;49.844;8.120;2023-02-11T00:40:33;101269.06;;;14.05;53.20
8039;BME280;4062;49.844;8.120;2023-02-11T00:42:34;101278.81;;;14.04;53.30
8039;BME280;4062;49.844;8.120;2023-02-11T00:44:35;101270.00;;;14.04;53.21
8039;BME280;4062;49.844;8.120;2023-02-11T00:46:36;101269.09;;;14.03;53.22
8039;BME280;4062;49.844;8.120;2023-02-11T00:48:37;101266.44;;;14.03;53.37
8039;BME280;4062;49.844;8.120;2023-02-11T00:50:38;101257.59;;;14.03;53.37
8039;BME280;4062;49.844;8.120;2023-02-11T00:52:38;101259.34;;;14.04;53.18
8039;BME280;4062;49.844;8.120;2023-02-11T00:54:40;101261.13;;;14.03;53.32
8039;BME280;4062;49.844;8.120;2023-02-11T00:56:41;101259.34;;;14.02;53.25
8039;BME280;4062;49.844;8.120;2023-02-11T00:58:42;101252.25;;;14.04;53.31
8039;BME280;4062;49.844;8.120;2023-02-11T01:00:43;101254.03;;;14.02;53.19
8039;BME280;4062;49.844;8.120;2023-02-11T01:02:43;101258.47;;;14.03;53.30
8039;BME280;4062;49.844;8.120;2023-02-11T01:04:44;101258.47;;;14.02;53.19
8039;BME280;4062;49.844;8.120;2023-02-11T01:06:45;101262.00;;;14.02;53.26
8039;BME280;4062;49.844;8.120;2023-02-11T01:08:46;101263.78;;;14.03;53.27
8039;BME280;4062;49.844;8.120;2023-02-11T01:10:56;101254.03;;;14.04;53.49
8039;BME280;4062;49.844;8.120;2023-02-11T01:12:57;101255.78;;;14.03;53.36
8039;BME280;4062;49.844;8.120;2023-02-11T01:14:59;101255.81;;;14.02;53.25
8039;BME280;4062;49.844;8.120;2023-02-11T01:17:00;101251.38;;;14.04;53.35
8039;BME280;4062;49.844;8.120;2023-02-11T01:19:01;101251.38;;;14.02;53.13
8039;BME280;4062;49.844;8.120;2023-02-11T01:21:02;101249.63;;;14.03;53.26
8039;BME280;4062;49.844;8.120;2023-02-11T01:23:03;101252.28;;;14.03;53.36
8039;BME280;4062;49.844;8.120;2023-02-11T01:25:06;101251.38;;;14.02;53.28
8039;BME280;4062;49.844;8.120;2023-02-11T01:27:09;101246.97;;;14.03;53.38
8039;BME280;4062;49.844;8.120;2023-02-11T01:29:10;101244.31;;;14.03;53.16
8039;BME280;4062;49.844;8.120;2023-02-11T01:31:11;101241.63;;;14.04;53.37
8039;BME280;4062;49.844;8.120;2023-02-11T01:33:12;101239.88;;;14.02;53.35
8039;BME280;4062;49.844;8.120;2023-02-11T01:35:13;101239.00;;;14.03;53.33
8039;BME280;4062;49.844;8.120;2023-02-11T01:37:14;101242.50;;;14.03;53.23
8039;BME280;4062;49.844;8.120;2023-02-11T01:39:15;101235.44;;;14.02;53.06
8039;BME280;4062;49.844;8.120;2023-02-11T01:41:16;101231.00;;;14.03;53.23
8039;BME280;4062;49.844;8.120;2023-02-11T01:43:17;101226.59;;;14.02;53.40
8039;BME280;4062;49.844;8.120;2023-02-11T01:47:47;101229.25;;;14.02;53.22
8039;BME280;4062;49.844;8.120;2023-02-11T01:50:06;101221.28;;;14.02;53.16
8039;BME280;4062;49.844;8.120;2023-02-11T01:52:26;101222.13;;;14.02;53.40
8039;BME280;4062;49.844;8.120;2023-02-11T01:54:43;101216.81;;;14.02;53.32
8039;BME280;4062;49.844;8.120;2023-02-11T01:57:04;101216.81;;;14.02;53.16
8039;BME280;4062;49.844;8.120;2023-02-11T01:59:45;101204.44;;;14.01;53.32
8039;BME280;4062;49.844;8.120;2023-02-11T02:01:55;101202.66;;;14.02;53.33
8039;BME280;4062;49.844;8.120;2023-02-11T02:03:59;101201.78;;;14.01;53.29
8039;BME280;4062;49.844;8.120;2023-02-11T02:06:09;101200.00;;;14.02;53.31
8039;BME280;4062;49.844;8.120;2023-02-11T02:08:31;101199.13;;;14.01;53.29
8039;BME280;4062;49.844;8.120;2023-02-11T02:10:38;101184.06;;;14.00;53.07
8039;BME280;4062;49.844;8.120;2023-02-11T02:12:40;101193.78;;;14.01;53.43
8039;BME280;4062;49.844;8.120;2023-02-11T02:14:41;101186.72;;;14.00;53.43
8039;BME280;4062;49.844;8.120;2023-02-11T02:16:44;101190.28;;;14.01;53.34
8039;BME280;4062;49.844;8.120;2023-02-11T02:34:03;101172.56;;;14.00;53.35
8039;BME280;4062;49.844;8.120;2023-02-11T02:40:55;101165.47;;;13.99;53.44
8039;BME280;4062;49.844;8.120;2023-02-11T02:42:58;101173.44;;;14.00;53.47
8039;BME280;4062;49.844;8.120;2023-02-11T02:45:00;101168.13;;;13.99;53.28
8039;BME280;4062;49.844;8.120;2023-02-11T02:47:01;101172.56;;;14.00;53.38
8039;BME280;4062;49.844;8.120;2023-02-11T02:49:05;101177.00;;;13.99;53.39
8039;BME280;4062;49.844;8.120;2023-02-11T02:54:08;101183.22;;;13.98;53.39
8039;BME280;4062;49.844;8.120;2023-02-11T03:02:14;101195.59;;;13.98;53.32
8039;BME280;4062;49.844;8.120;2023-02-11T03:09:48;101190.28;;;13.98;53.30
8039;BME280;4062;49.844;8.120;2023-02-11T03:11:51;101191.19;;;13.98;53.31
8039;BME280;4062;49.844;8.120;2023-02-11T03:13:54;101184.97;;;13.98;53.39
8039;BME280;4062;49.844;8.120;2023-02-11T03:15:57;101178.78;;;13.97;53.42
8039;BME280;4062;49.844;8.120;2023-02-11T03:18:02;101170.81;;;13.97;53.39
8039;BME280;4062;49.844;8.120;2023-02-11T03:20:06;101169.91;;;13.97;53.33
8039;BME280;4062;49.844;8.120;2023-02-11T03:22:21;101159.28;;;13.97;53.41
8039;BME280;4062;49.844;8.120;2023-02-11T03:24:31;101166.41;;;13.96;53.43
8039;BME280;4062;49.844;8.120;2023-02-11T03:26:45;101160.19;;;13.96;53.23
8039;BME280;4062;49.844;8.120;2023-02-11T03:28:59;101162.84;;;13.96;53.43
8039;BME280;4062;49.844;8.120;2023-02-11T03:31:50;101170.81;;;13.96;53.26
8039;BME280;4062;49.844;8.120;2023-02-11T03:34:26;101168.16;;;13.96;53.23
8039;BME280;4062;49.844;8.120;2023-02-11T03:37:09;101165.53;;;13.94;53.31
8039;BME280;4062;49.844;8.120;2023-02-11T03:39:21;101171.72;;;13.96;53.30
8039;BME280;4062;49.844;8.120;2023-02-11T03:41:24;101167.28;;;13.95;53.35
8039;BME280;4062;49.844;8.120;2023-02-11T03:43:40;101170.84;;;13.94;53.31
8039;BME280;4062;49.844;8.120;2023-02-11T03:45:41;101166.44;;;13.95;53.42
8039;BME280;4062;49.844;8.120;2023-02-11T03:47:49;101167.28;;;13.95;53.22
8039;BME280;4062;49.844;8.120;2023-02-11T03:49:53;101162.88;;;13.94;53.41
8039;BME280;4062;49.844;8.120;2023-02-11T03:51:55;101158.44;;;13.93;53.36
8039;BME280;4062;49.844;8.120;2023-02-11T03:53:59;101150.47;;;13.93;53.25
8039;BME280;4062;49.844;8.120;2023-02-11T03:56:05;101150.47;;;13.93;53.32
8039;BME280;4062;49.844;8.120;2023-02-11T03:58:08;101153.13;;;13.93;53.28
8039;BME280;4062;49.844;8.120;2023-02-11T04:00:10;101145.16;;;13.93;53.36
8039;BME280;4062;49.844;8.120;2023-02-11T04:02:12;101138.97;;;13.93;53.31
8039;BME280;4062;49.844;8.120;2023-02-11T04:04:13;101127.44;;;13.92;53.46
8039;BME280;4062;49.844;8.120;2023-02-11T04:06:14;101117.72;;;13.93;53.49
8039;BME280;4062;49.844;8.120;2023-02-11T04:08:15;101108.00;;;13.91;53.34
8039;BME280;4062;49.844;8.120;2023-02-11T04:10:16;101100.00;;;13.91;53.39
8039;BME280;4062;49.844;8.120;2023-02-11T04:12:17;101090.25;;;13.92;53.31
8039;BME280;4062;49.844;8.120;2023-02-11T04:14:18;101084.06;;;13.91;53.36
8039;BME280;4062;49.844;8.120;2023-02-11T04:16:19;101087.59;;;13.92;53.46
8039;BME280;4062;49.844;8.120;2023-02-11T04:18:19;101083.19;;;13.91;53.66
8039;BME280;4062;49.844;8.120;2023-02-11T04:20:20;101087.59;;;13.92;53.54
8039;BME280;4062;49.844;8.120;2023-02-11T04:22:21;101085.84;;;13.91;53.57
8039;BME280;4062;49.844;8.120;2023-02-11T04:24:22;101079.66;;;13.90;53.46
8039;BME280;4062;49.844;8.120;2023-02-11T04:26:23;101075.22;;;13.89;53.48
8039;BME280;4062;49.844;8.120;2023-02-11T04:28:24;101069.91;;;13.89;53.32
8039;BME280;4062;49.844;8.120;2023-02-11T04:30:27;101076.13;;;13.90;53.41
8039;BME280;4062;49.844;8.120;2023-02-11T04:32:31;101081.41;;;13.91;53.38
8039;BME280;4062;49.844;8.120;2023-02-11T04:34:32;101084.09;;;13.90;53.38
8039;BME280;4062;49.844;8.120;2023-02-11T04:36:33;101092.94;;;13.90;53.23
8039;BME280;4062;49.844;8.120;2023-02-11T04:38:33;101092.06;;;13.90;53.30
8039;BME280;4062;49.844;8.120;2023-02-11T04:40:34;101092.06;;;13.90;53.52
8039;BME280;4062;49.844;8.120;2023-02-11T04:42:35;101094.72;;;13.90;53.37
8039;BME280;4062;49.844;8.120;2023-02-11T04:44:36;101098.28;;;13.89;53.39
8039;BME280;4062;49.844;8.120;2023-02-11T04:46:37;101110.66;;;13.90;53.26
8039;BME280;4062;49.844;8.120;2023-02-11T04:48:38;101117.75;;;13.89;53.33
8039;BME280;4062;49.844;8.120;2023-02-11T04:50:40;101112.44;;;13.89;53.50
8039;BME280;4062;49.844;8.120;2023-02-11T04:52:41;101112.44;;;13.89;53.32
8039;BME280;4062;49.844;8.120;2023-02-11T04:54:42;101115.97;;;13.88;53.31
8039;BME280;4062;49.844;8.120;2023-02-11T04:56:43;101108.91;;;13.89;53.34
8039;BME280;4062;49.844;8.120;2023-02-11T04:58:44;101119.53;;;13.89;53.37
8039;BME280;4062;49.844;8.120;2023-02-11T05:00:45;101114.22;;;13.87;53.41
8039;BME280;4062;49.844;8.120;2023-02-11T05:02:46;101129.25;;;13.88;53.56
8039;BME280;4062;49.844;8.120;2023-02-11T05:04:47;101120.44;;;13.88;53.39
8039;BME280;4062;49.844;8.120;2023-02-11T05:06:48;101128.41;;;13.88;53.39
8039;BME280;4062;49.844;8.120;2023-02-11T05:08:49;101131.06;;;13.88;53.52
8039;BME280;4062;49.844;8.120;2023-02-11T05:10:50;101120.44;;;13.88;53.58
8039;BME280;4062;49.844;8.120;2023-02-11T05:12:51;101119.53;;;13.87;53.50
8039;BME280;4062;49.844;8.120;2023-02-11T05:14:52;101119.53;;;13.87;53.49
8039;BME280;4062;49.844;8.120;2023-02-11T05:16:53;101112.44;;;13.86;53.67
8039;BME280;4062;49.844;8.120;2023-02-11T05:18:54;101114.22;;;13.87;53.22
8039;BME280;4062;49.844;8.120;2023-02-11T05:20:55;101108.03;;;13.87;53.39
8039;BME280;4062;49.844;8.120;2023-02-11T05:22:56;101108.03;;;13.87;53.34
8039;BME280;4062;49.844;8.120;2023-02-11T05:24:57;101100.09;;;13.85;53.34
8039;BME280;4062;49.844;8.120;2023-02-11T05:26:58;101100.97;;;13.86;53.51
8039;BME280;4062;49.844;8.120;2023-02-11T05:28:59;101093.84;;;13.86;53.15
8039;BME280;4062;49.844;8.120;2023-02-11T05:31:00;101090.31;;;13.86;53.43
8039;BME280;4062;49.844;8.120;2023-02-11T05:33:01;101078.84;;;13.85;53.48
8039;BME280;4062;49.844;8.120;2023-02-11T05:35:02;101084.16;;;13.85;53.50
8039;BME280;4062;49.844;8.120;2023-02-11T05:37:03;101071.75;;;13.84;53.27
8039;BME280;4062;49.844;8.120;2023-02-11T05:39:04;101072.63;;;13.85;53.56
8039;BME280;4062;49.844;8.120;2023-02-11T05:41:05;101072.63;;;13.85;53.56
8039;BME280;4062;49.844;8.120;2023-02-11T05:43:06;101080.59;;;13.85;53.34
8039;BME280;4062;49.844;8.120;2023-02-11T05:45:08;101085.03;;;13.84;53.49
8039;BME280;4062;49.844;8.120;2023-02-11T05:47:09;101092.13;;;13.85;53.42
8039;BME280;4062;49.844;8.120;2023-02-11T05:49:10;101090.34;;;13.84;53.48
8039;BME280;4062;49.844;8.120;2023-02-11T05:51:10;101092.13;;;13.84;53.51
8039;BME280;4062;49.844;8.120;2023-02-11T05:53:11;101090.34;;;13.83;53.45
8039;BME280;4062;49.844;8.120;2023-02-11T05:55:12;101094.78;;;13.84;53.38
8039;BME280;4062;49.844;8.120;2023-02-11T05:57:13;101095.66;;;13.84;53.50
8039;BME280;4062;49.844;8.120;2023-02-11T05:59:14;101100.09;;;13.84;53.62
8039;BME280;4062;49.844;8.120;2023-02-11T06:01:15;101098.31;;;13.83;53.47
8039;BME280;4062;49.844;8.120;2023-02-11T06:03:16;101103.63;;;13.83;53.62
8039;BME280;4062;49.844;8.120;2023-02-11T06:05:17;101096.56;;;13.83;53.55
8039;BME280;4062;49.844;8.120;2023-02-11T06:07:18;101106.28;;;13.83;53.53
8039;BME280;4062;49.844;8.120;2023-02-11T06:09:19;101101.88;;;13.83;53.60
8039;BME280;4062;49.844;8.120;2023-02-11T06:11:20;101100.06;;;13.87;53.35
8039;BME280;4062;49.844;8.120;2023-02-11T06:13:21;101103.59;;;13.89;53.38
8039;BME280;4062;49.844;8.120;2023-02-11T06:15:22;101096.47;;;13.91;53.64
8039;BME280;4062;49.844;8.120;2023-02-11T06:17:23;101104.41;;;13.94;53.39
8039;BME280;4062;49.844;8.120;2023-02-11T06:19:25;101108.81;;;13.98;53.51
8039;BME280;4062;49.844;8.120;2023-02-11T06:21:25;101113.22;;;14.01;53.18
8039;BME280;4062;49.844;8.120;2023-02-11T06:23:26;101111.41;;;14.03;53.36
8039;BME280;4062;49.844;8.120;2023-02-11T06:25:27;101117.56;;;14.06;53.52
8039;BME280;4062;49.844;8.120;2023-02-11T06:27:28;101113.13;;;14.09;53.46
8039;BME280;4062;49.844;8.120;2023-02-11T06:29:29;101111.31;;;14.11;53.44
8039;BME280;4062;49.844;8.120;2023-02-11T06:31:30;101098.88;;;14.14;53.30
8039;BME280;4062;49.844;8.120;2023-02-11T06:33:32;101095.31;;;14.17;53.23
8039;BME280;4062;49.844;8.120;2023-02-11T06:35:34;101110.34;;;14.19;53.45
8039;BME280;4062;49.844;8.120;2023-02-11T06:37:36;101115.63;;;14.22;53.19
8039;BME280;4062;49.844;8.120;2023-02-11T06:39:37;101120.03;;;14.25;53.30
8039;BME280;4062;49.844;8.120;2023-02-11T06:41:38;101122.63;;;14.28;53.50
8039;BME280;4062;49.844;8.120;2023-02-11T06:43:39;101135.03;;;14.31;53.39
8039;BME280;4062;49.844;8.120;2023-02-11T06:45:41;101119.91;;;14.33;53.28
8039;BME280;4062;49.844;8.120;2023-02-11T06:47:42;101124.34;;;14.34;53.01
8039;BME280;4062;49.844;8.120;2023-02-11T06:49:43;101117.25;;;14.34;53.17
8039;BME280;4062;49.844;8.120;2023-02-11T06:51:44;101125.22;;;14.36;53.30
8039;BME280;4062;49.844;8.120;2023-02-11T06:53:46;101129.63;;;14.37;53.35
8039;BME280;4062;49.844;8.120;2023-02-11T06:55:46;101135.81;;;14.37;53.19
8039;BME280;4062;49.844;8.120;2023-02-11T06:57:47;101131.41;;;14.38;53.18
8039;BME280;4062;49.844;8.120;2023-02-11T06:59:48;101132.28;;;14.37;53.15
8039;BME280;4062;49.844;8.120;2023-02-11T07:01:49;101132.28;;;14.37;53.09
8039;BME280;4062;49.844;8.120;2023-02-11T07:03:50;101124.31;;;14.37;53.36
8039;BME280;4062;49.844;8.120;2023-02-11T07:05:51;101125.22;;;14.36;53.34
8039;BME280;4062;49.844;8.120;2023-02-11T07:07:52;101126.06;;;14.36;53.33
8039;BME280;4062;49.844;8.120;2023-02-11T07:09:53;101121.69;;;14.35;53.27
8039;BME280;4062;49.844;8.120;2023-02-11T07:11:54;101123.41;;;14.36;53.25
8039;BME280;4062;49.844;8.120;2023-02-11T07:14:06;101128.75;;;14.35;53.25
8039;BME280;4062;49.844;8.120;2023-02-11T07:16:14;101119.03;;;14.34;53.30
8039;BME280;4062;49.844;8.120;2023-02-11T07:18:15;101103.06;;;14.34;53.48
8039;BME280;4062;49.844;8.120;2023-02-11T07:20:16;101103.97;;;14.34;53.37
8039;BME280;4062;49.844;8.120;2023-02-11T07:22:17;101102.19;;;14.33;53.29
8039;BME280;4062;49.844;8.120;2023-02-11T07:24:18;101101.31;;;14.33;53.08
8039;BME280;4062;49.844;8.120;2023-02-11T07:26:22;101098.66;;;14.33;53.09
8039;BME280;4062;49.844;8.120;2023-02-11T07:28:23;101097.78;;;14.32;53.38
8039;BME280;4062;49.844;8.120;2023-02-11T07:30:24;101106.66;;;14.31;53.35
8039;BME280;4062;49.844;8.120;2023-02-11T07:32:25;101107.53;;;14.30;53.40
8039;BME280;4062;49.844;8.120;2023-02-11T07:34:26;101112.88;;;14.30;53.39
8039;BME280;4062;49.844;8.120;2023-02-11T07:36:28;101120.84;;;14.30;53.33
8039;BME280;4062;49.844;8.120;2023-02-11T07:38:32;101136.81;;;14.29;53.42
8039;BME280;4062;49.844;8.120;2023-02-11T07:40:33;101131.50;;;14.29;53.09
8039;BME280;4062;49.844;8.120;2023-02-11T07:42:34;101135.06;;;14.28;53.14
8039;BME280;4062;49.844;8.120;2023-02-11T07:44:35;101135.06;;;14.28;53.04
8039;BME280;4062;49.844;8.120;2023-02-11T07:46:36;101118.22;;;14.26;53.04
8039;BME280;4062;49.844;8.120;2023-02-11T07:48:42;101123.56;;;14.26;53.10
8039;BME280;4062;49.844;8.120;2023-02-11T07:50:43;101117.38;;;14.23;53.08
8039;BME280;4062;49.844;8.120;2023-02-11T07:52:44;101128.94;;;14.22;52.97
8039;BME280;4062;49.844;8.120;2023-02-11T07:54:47;101140.44;;;14.21;53.10
8039;BME280;4062;49.844;8.120;2023-02-11T07:56:48;101136.03;;;14.20;53.06
8039;BME280;4062;49.844;8.120;2023-02-11T07:58:49;101148.44;;;14.20;53.16
8039;BME280;4062;49.844;8.120;2023-02-11T08:00:50;101139.59;;;14.19;53.19
8039;BME280;4062;49.844;8.120;2023-02-11T08:02:51;101138.69;;;14.19;53.00
8039;BME280;4062;49.844;8.120;2023-02-11T08:04:52;101144.94;;;14.18;53.06
8039;BME280;4062;49.844;8.120;2023-02-11T08:06:53;101150.25;;;14.18;52.99
8039;BME280;4062;49.844;8.120;2023-02-11T08:08:57;101147.56;;;14.16;53.06
8039;BME280;4062;49.844;8.120;2023-02-11T08:11:00;101152.91;;;14.16;53.13
8039;BME280;4062;49.844;8.120;2023-02-11T08:13:04;101154.69;;;14.14;53.03
8039;BME280;4062;49.844;8.120;2023-02-11T08:15:05;101152.03;;;14.14;53.07
8039;BME280;4062;49.844;8.120;2023-02-11T08:17:06;101154.69;;;14.14;53.22
8039;BME280;4062;49.844;8.120;2023-02-11T08:19:13;101148.50;;;14.14;53.27
8039;BME280;4062;49.844;8.120;2023-02-11T08:21:14;101150.28;;;14.12;53.19
8039;BME280;4062;49.844;8.120;2023-02-11T08:23:15;101146.75;;;14.11;53.27
8039;BME280;4062;49.844;8.120;2023-02-11T08:25:16;101144.09;;;14.11;53.16
8039;BME280;4062;49.844;8.120;2023-02-11T08:27:17;101139.66;;;14.12;53.04
8039;BME280;4062;49.844;8.120;2023-02-11T08:29:18;101136.13;;;14.11;53.12
8039;BME280;4062;49.844;8.120;2023-02-11T08:31:26;101155.59;;;14.12;53.17
8039;BME280;4062;49.844;8.120;2023-02-11T08:33:27;101140.56;;;14.12;53.19
8039;BME280;4062;49.844;8.120;2023-02-11T08:35:28;101144.94;;;14.15;53.08
8039;BME280;4062;49.844;8.120;2023-02-11T08:37:29;101150.25;;;14.16;53.03
8039;BME280;4062;49.844;8.120;2023-02-11T08:39:29;101152.88;;;14.19;53.33
8039;BME280;4062;49.844;8.120;2023-02-11T08:41:32;101157.28;;;14.22;53.29
8039;BME280;4062;49.844;8.120;2023-02-11T08:43:35;101166.13;;;14.24;53.43
8039;BME280;4062;49.844;8.120;2023-02-11T08:45:36;101174.06;;;14.27;53.36
8039;BME280;4062;49.844;8.120;2023-02-11T08:47:38;101173.16;;;14.27;53.28
8039;BME280;4062;49.844;8.120;2023-02-11T08:49:39;101181.13;;;14.28;53.37
8039;BME280;4062;49.844;8.120;2023-02-11T08:51:42;101182.88;;;14.29;53.26
8039;BME280;4062;49.844;8.120;2023-02-11T08:53:45;101185.53;;;14.29;53.53
8039;BME280;4062;49.844;8.120;2023-02-11T08:55:50;101175.78;;;14.31;53.35
8039;BME280;4062;49.844;8.120;2023-02-11T08:57:51;101171.34;;;14.30;53.43
8039;BME280;4062;49.844;8.120;2023-02-11T08:59:52;101165.16;;;14.31;52.91
8039;BME280;4062;49.844;8.120;2023-02-11T09:01:53;101169.59;;;14.31;53.30
8039;BME280;4062;49.844;8.120;2023-02-11T09:03:55;101169.59;;;14.31;53.23
8039;BME280;4062;49.844;8.120;2023-02-11T09:05:56;101172.25;;;14.31;53.40
8039;BME280;4062;49.844;8.120;2023-02-11T09:07:57;101168.66;;;14.32;53.30
8039;BME280;4062;49.844;8.120;2023-02-11T09:09:58;101168.66;;;14.32;53.35
8039;BME280;4062;49.844;8.120;2023-02-11T09:11:59;101175.75;;;14.33;53.23
8039;BME280;4062;49.844;8.120;2023-02-11T09:14:02;101173.13;;;14.31;53.30
8039;BME280;4062;49.844;8.120;2023-02-11T09:16:04;101186.41;;;14.31;53.12
8039;BME280;4062;49.844;8.120;2023-02-11T09:18:05;101182.00;;;14.30;53.00
8039;BME280;4062;49.844;8.120;2023-02-11T09:20:06;101189.09;;;14.28;53.37
8039;BME280;4062;49.844;8.120;2023-02-11T09:22:07;101174.94;;;14.28;53.08
8039;BME280;4062;49.844;8.120;2023-02-11T09:24:08;101179.38;;;14.26;53.15
8039;BME280;4062;49.844;8.120;2023-02-11T09:26:19;101184.72;;;14.24;53.02
8039;BME280;4062;49.844;8.120;2023-02-11T09:28:20;101186.50;;;14.23;53.08
8039;BME280;4062;49.844;8.120;2023-02-11T09:30:21;101188.28;;;14.23;53.16
8039;BME280;4062;49.844;8.120;2023-02-11T09:32:22;101191.81;;;14.22;53.12
8039;BME280;4062;49.844;8.120;2023-02-11T09:34:23;101191.81;;;14.22;53.05
8039;BME280;4062;49.844;8.120;2023-02-11T09:36:30;101190.97;;;14.21;53.16
8039;BME280;4062;49.844;8.120;2023-02-11T09:38:32;101199.84;;;14.20;53.26
8039;BME280;4062;49.844;8.120;2023-02-11T09:40:33;101201.59;;;14.20;53.21
8039;BME280;4062;49.844;8.120;2023-02-11T09:44:46;101210.47;;;14.19;53.06
8039;BME280;4062;49.844;8.120;2023-02-11T09:47:00;101221.09;;;14.19;53.07
8039;BME280;4062;49.844;8.120;2023-02-11T09:49:03;101219.34;;;14.18;53.32
8039;BME280;4062;49.844;8.120;2023-02-11T09:51:05;101223.78;;;14.17;53.09
8039;BME280;4062;49.844;8.120;2023-02-11T09:53:34;101222.00;;;14.16;53.28
8039;BME280;4062;49.844;8.120;2023-02-11T09:55:45;101220.25;;;14.15;53.11
8039;BME280;4062;49.844;8.120;2023-02-11T09:57:47;101229.13;;;14.16;53.13
8039;BME280;4062;49.844;8.120;2023-02-11T09:59:48;101232.66;;;14.15;53.10
8039;BME280;4062;49.844;8.120;2023-02-11T10:02:05;101232.69;;;14.13;53.42
8039;BME280;4062;49.844;8.120;2023-02-11T10:06:56;101238.91;;;14.11;53.20
8039;BME280;4062;49.844;8.120;2023-02-11T10:09:40;101243.31;;;14.12;53.22
8039;BME280;4062;49.844;8.120;2023-02-11T10:21:50;101230.09;;;14.09;53.34
8039;BME280;4062;49.844;8.120;2023-02-11T10:23:56;101234.50;;;14.08;53.48
8039;BME280;4062;49.844;8.120;2023-02-11T10:25:59;101230.09;;;14.09;53.32
8039;BME280;4062;49.844;8.120;2023-02-11T10:28:17;101217.66;;;14.09;53.41
8039;BME280;4062;49.844;8.120;2023-02-11T10:30:32;101219.41;;;14.10;53.30
8039;BME280;4062;49.844;8.120;2023-02-11T10:34:57;101218.47;;;14.14;53.30
8039;BME280;4062;49.844;8.120;2023-02-11T10:37:00;101228.22;;;14.17;53.20
8039;BME280;4062;49.844;8.120;2023-02-11T10:39:19;101228.19;;;14.20;53.31
8039;BME280;4062;49.844;8.120;2023-02-11T10:41:27;101225.50;;;14.23;53.37
8039;BME280;4062;49.844;8.120;2023-02-11T10:43:32;101218.38;;;14.23;53.53
8039;BME280;4062;49.844;8.120;2023-02-11T10:45:51;101217.50;;;14.25;53.31
8039;BME280;4062;49.844;8.120;2023-02-11T10:47:52;101219.28;;;14.27;53.40
8039;BME280;4062;49.844;8.120;2023-02-11T10:49:55;101216.63;;;14.27;53.26
8039;BME280;4062;49.844;8.120;2023-02-11T10:52:24;101221.00;;;14.28;53.34
8039;BME280;4062;49.844;8.120;2023-02-11T10:54:25;101217.44;;;14.29;53.37
8039;BME280;4062;49.844;8.120;2023-02-11T10:56:27;101213.94;;;14.29;53.26
8039;BME280;4062;49.844;8.120;2023-02-11T10:58:53;101213.94;;;14.29;53.29
8039;BME280;4062;49.844;8.120;2023-02-11T11:00:57;101207.72;;;14.30;53.30
8039;BME280;4062;49.844;8.120;2023-02-11T11:02:59;101213.03;;;14.30;53.24
8039;BME280;4062;49.844;8.120;2023-02-11T11:05:16;101216.56;;;14.30;53.22
8039;BME280;4062;49.844;8.120;2023-02-11T11:07:24;101210.38;;;14.28;53.35
8039;BME280;4062;49.844;8.120;2023-02-11T11:09:29;101198.00;;;14.27;53.42
8039;BME280;4062;49.844;8.120;2023-02-11T11:11:30;101199.75;;;14.27;53.21
8039;BME280;4062;49.844;8.120;2023-02-11T11:13:40;101200.66;;;14.26;53.33
8039;BME280;4062;49.844;8.120;2023-02-11T11:15:43;101210.41;;;14.25;53.20
8039;BME280;4062;49.844;8.120;2023-02-11T11:17:44;101211.31;;;14.24;53.29
8039;BME280;4062;49.844;8.120;2023-02-11T11:19:45;101209.53;;;14.23;53.19
8039;BME280;4062;49.844;8.120;2023-02-11T11:21:52;101206.03;;;14.22;53.33
8039;BME280;4062;49.844;8.120;2023-02-11T11:23:59;101206.91;;;14.21;53.29
8039;BME280;4062;49.844;8.120;2023-02-11T11:26:14;101201.59;;;14.21;53.23
8039;BME280;4062;49.844;8.120;2023-02-11T11:28:25;101198.03;;;14.21;53.22
8039;BME280;4062;49.844;8.120;2023-02-11T11:30:37;101198.94;;;14.20;53.38
8039;BME280;4062;49.844;8.120;2023-02-11T11:32:41;101198.97;;;14.18;53.15
8039;BME280;4062;49.844;8.120;2023-02-11T11:34:48;101203.41;;;14.18;53.06
8039;BME280;4062;49.844;8.120;2023-02-11T11:36:50;101206.06;;;14.18;53.08
8039;BME280;4062;49.844;8.120;2023-02-11T11:39:30;101198.09;;;14.16;52.98
8039;BME280;4062;49.844;8.120;2023-02-11T11:41:33;101202.53;;;14.16;52.92
8039;BME280;4062;49.844;8.120;2023-02-11T11:43:34;101202.53;;;14.16;52.94
8039;BME280;4062;49.844;8.120;2023-02-11T11:45:37;101205.19;;;14.16;53.09
8039;BME280;4062;49.844;8.120;2023-02-11T11:47:55;101200.78;;;14.15;53.00
8039;BME280;4062;49.844;8.120;2023-02-11T11:50:44;101206.09;;;14.15;52.99
8039;BME280;4062;49.844;8.120;2023-02-11T11:55:48;101199.03;;;14.12;53.01
8039;BME280;4062;49.844;8.120;2023-02-11T11:57:52;101194.59;;;14.11;52.99
8039;BME280;4062;49.844;8.120;2023-02-11T11:59:53;101191.94;;;14.11;52.96
8039;BME280;4062;49.844;8.120;2023-02-11T12:02:46;101193.72;;;14.11;52.98
8039;BME280;4062;49.844;8.120;2023-02-11T12:05:12;101206.13;;;14.10;53.11